Time;durP1;ratioP1;P1;durP2;ratioP2;P2;SDS_P1;SDS_P2;PMS_P1;PMS_P2;Temp;Humidity;BMP_temperature;BMP_pressure;BME280_temperature;BME280_humidity;BME280_pressure;Samples;Min_cycle;Max_cycle;Signal;HPM_P1;HPM_P2
2022/05/13 00:00:57;;;;;;;7.10;6.50;;;16.90;99.90;;;;;;4190669;28;20049;-76
2022/05/13 00:02:59;;;;;;;6.53;6.00;;;17.00;99.90;;;;;;4189545;28;20057;-76
2022/05/13 00:05:02;;;;;;;6.57;5.97;;;17.00;99.90;;;;;;4187969;28;20064;-75
2022/05/13 00:07:04;;;;;;;10.75;5.70;;;16.90;99.90;;;;;;4187750;28;20140;-76
2022/05/13 00:09:06;;;;;;;5.57;5.18;;;17.00;99.90;;;;;;4189670;28;20059;-76
2022/05/13 00:11:09;;;;;;;9.43;5.75;;;17.00;99.90;;;;;;4189408;28;20095;-76
2022/05/13 00:13:11;;;;;;;7.60;5.38;;;17.00;99.90;;;;;;4186255;28;20088;-76
2022/05/13 00:15:17;;;;;;;7.03;5.65;;;17.00;99.90;;;;;;4187341;28;20819;-76
2022/05/13 00:17:20;;;;;;;6.75;5.93;;;17.00;99.90;;;;;;4185174;28;20068;-76
2022/05/13 00:19:21;;;;;;;6.30;5.70;;;17.00;99.90;;;;;;4185776;28;20101;-76
2022/05/13 00:21:23;;;;;;;6.63;5.63;;;17.00;99.90;;;;;;4185265;28;20061;-75
2022/05/13 00:23:25;;;;;;;7.75;6.18;;;17.00;99.90;;;;;;4185833;28;20059;-76
2022/05/13 00:25:30;;;;;;;6.95;5.25;;;17.00;99.90;;;;;;4186442;28;20119;-75
2022/05/13 00:27:32;;;;;;;7.85;5.60;;;16.90;99.90;;;;;;4182727;28;20658;-76
2022/05/13 00:29:34;;;;;;;6.22;5.72;;;16.90;99.90;;;;;;4182017;28;20067;-76
2022/05/13 00:31:36;;;;;;;6.20;5.70;;;16.90;99.90;;;;;;4183827;28;20095;-76
2022/05/13 00:33:39;;;;;;;5.70;5.30;;;17.00;99.90;;;;;;4183629;28;20675;-76
2022/05/13 00:35:40;;;;;;;6.28;4.90;;;17.00;99.90;;;;;;4185992;28;20077;-76
2022/05/13 00:37:42;;;;;;;11.60;5.60;;;16.90;99.90;;;;;;4180455;28;20860;-76
2022/05/13 00:39:44;;;;;;;5.57;5.15;;;17.00;99.90;;;;;;4182007;28;20916;-76
2022/05/13 00:41:47;;;;;;;6.25;5.65;;;16.90;99.90;;;;;;4180834;28;20164;-75
2022/05/13 00:43:52;;;;;;;5.35;4.70;;;17.00;99.90;;;;;;4181445;28;20092;-75
2022/05/13 00:45:53;;;;;;;6.22;5.65;;;16.90;99.90;;;;;;4181220;28;20824;-76
2022/05/13 00:47:55;;;;;;;8.10;5.88;;;17.00;99.90;;;;;;4181631;28;20049;-76
2022/05/13 00:49:59;;;;;;;6.68;5.63;;;17.00;99.90;;;;;;4197054;28;20057;-76
2022/05/13 00:52:03;;;;;;;5.72;5.22;;;16.90;99.90;;;;;;4193631;28;20865;-76
2022/05/13 00:54:11;;;;;;;6.32;5.82;;;16.90;99.90;;;;;;4176352;28;20069;-76
2022/05/13 00:56:14;;;;;;;7.82;5.75;;;16.90;99.90;;;;;;4192606;28;20870;-76
2022/05/13 00:58:18;;;;;;;6.30;5.60;;;16.90;99.90;;;;;;4193367;28;20053;-75
2022/05/13 01:00:21;;;;;;;6.05;5.45;;;16.90;99.90;;;;;;4187492;28;20654;-75
2022/05/13 01:02:23;;;;;;;5.65;5.25;;;16.90;99.90;;;;;;4191889;28;20061;-76
2022/05/13 01:04:26;;;;;;;6.05;5.65;;;16.90;99.90;;;;;;4191165;28;20168;-76
2022/05/13 01:06:29;;;;;;;9.05;6.03;;;16.90;99.90;;;;;;4185034;28;20176;-76
2022/05/13 01:08:32;;;;;;;6.63;5.60;;;16.90;99.90;;;;;;4191589;28;20887;-76
2022/05/13 01:10:36;;;;;;;8.18;5.80;;;16.90;99.90;;;;;;4186537;28;20057;-76
2022/05/13 01:12:42;;;;;;;6.28;5.68;;;16.90;99.90;;;;;;4190807;28;20058;-76
2022/05/13 01:14:49;;;;;;;5.82;5.32;;;16.90;99.90;;;;;;4187871;28;20052;-76
2022/05/13 01:19:13;;;;;;;5.93;5.43;;;16.90;99.90;;;;;;4186975;28;20061;-76
2022/05/13 01:21:22;;;;;;;5.45;5.05;;;16.90;99.90;;;;;;4188206;28;20109;-75
2022/05/13 01:23:32;;;;;;;6.15;5.65;;;16.90;99.90;;;;;;4188969;28;20092;-75
2022/05/13 01:25:37;;;;;;;;;;;16.90;99.90;;;;;;4184052;28;20065;-77
2022/05/13 01:27:41;;;;;;;6.93;6.32;;;16.90;99.90;;;;;;4184543;28;20649;-77
2022/05/13 01:29:43;;;;;;;7.55;6.43;;;16.80;99.90;;;;;;4187354;28;20058;-77
2022/05/13 01:31:45;;;;;;;6.25;5.65;;;16.80;99.90;;;;;;4188201;28;20061;-77
2022/05/13 01:33:47;;;;;;;5.97;5.38;;;16.60;99.90;;;;;;4189102;28;20670;-77
2022/05/13 01:35:53;;;;;;;7.32;6.72;;;16.60;99.90;;;;;;4198073;28;20806;-76
2022/05/13 01:37:55;;;;;;;12.75;6.93;;;16.50;99.90;;;;;;4186760;28;20776;-77
2022/05/13 01:39:57;;;;;;;8.30;7.10;;;16.50;99.90;;;;;;4184411;28;20107;-76
2022/05/13 01:41:58;;;;;;;8.02;7.30;;;16.50;99.90;;;;;;4184989;28;20061;-77
2022/05/13 01:44:00;;;;;;;7.60;6.97;;;16.40;99.90;;;;;;4184613;28;20084;-77
2022/05/13 01:46:02;;;;;;;9.27;7.07;;;16.40;99.90;;;;;;4181955;28;20057;-78
2022/05/13 01:48:06;;;;;;;7.72;6.80;;;16.40;99.90;;;;;;4188242;28;20061;-77
2022/05/13 01:50:09;;;;;;;8.50;7.70;;;16.40;99.90;;;;;;4163544;28;20164;-77
2022/05/13 01:52:11;;;;;;;8.00;7.30;;;16.40;99.90;;;;;;4179285;28;20792;-76
2022/05/13 01:54:12;;;;;;;8.98;7.97;;;16.40;99.90;;;;;;4182084;28;20831;-77
2022/05/13 01:56:14;;;;;;;9.15;7.80;;;16.40;99.90;;;;;;4181665;28;20068;-75
2022/05/13 01:58:19;;;;;;;13.43;8.68;;;16.30;99.90;;;;;;4184633;28;20093;-81
2022/05/13 02:00:22;;;;;;;15.23;10.88;;;16.30;99.90;;;;;;4163424;28;20165;-76
2022/05/13 02:02:23;;;;;;;27.30;11.82;;;16.20;99.90;;;;;;4183291;28;20084;-77
2022/05/13 02:04:25;;;;;;;14.32;10.07;;;16.10;99.90;;;;;;4185321;28;20144;-77
2022/05/13 02:06:28;;;;;;;19.42;11.38;;;15.90;99.90;;;;;;4191206;28;20063;-77
2022/05/13 02:08:31;;;;;;;22.58;11.75;;;15.90;99.90;;;;;;4186124;28;20064;-75
2022/05/13 02:10:32;;;;;;;119.50;21.00;;;15.90;99.90;;;;;;4190721;28;20057;-76
2022/05/13 02:12:34;;;;;;;39.53;11.63;;;16.00;99.90;;;;;;4189859;28;20059;-77
2022/05/13 02:14:36;;;;;;;48.95;12.40;;;15.80;99.90;;;;;;4192389;28;20096;-76
2022/05/13 02:16:37;;;;;;;17.40;11.30;;;15.60;99.90;;;;;;4189895;28;20057;-77
2022/05/13 02:18:40;;;;;;;22.73;11.75;;;15.50;99.90;;;;;;4189781;28;20057;-77
2022/05/13 02:20:42;;;;;;;17.23;12.98;;;15.50;99.90;;;;;;4194579;28;20092;-77
2022/05/13 02:22:43;;;;;;;24.23;11.57;;;15.70;99.90;;;;;;4191547;28;20143;-76
2022/05/13 02:24:45;;;;;;;17.17;11.23;;;15.70;99.90;;;;;;4194541;28;20089;-76
2022/05/13 02:26:47;;;;;;;13.98;10.80;;;15.60;99.90;;;;;;4192553;28;20068;-77
2022/05/13 02:28:48;;;;;;;12.63;10.10;;;15.50;99.90;;;;;;4184443;28;20104;-78
2022/05/13 02:30:50;;;;;;;17.17;10.18;;;15.50;99.90;;;;;;4190835;28;21393;-77
2022/05/13 02:32:52;;;;;;;12.23;10.10;;;15.50;99.90;;;;;;4173856;28;20049;-77
2022/05/13 02:34:54;;;;;;;18.67;11.15;;;15.50;99.90;;;;;;4191192;28;20057;-76
2022/05/13 02:36:55;;;;;;;14.27;11.05;;;15.50;99.90;;;;;;4191201;28;20795;-76
2022/05/13 02:38:57;;;;;;;22.58;11.77;;;15.50;99.90;;;;;;4190223;28;20180;-76
2022/05/13 02:41:11;;;;;;;19.40;11.90;;;15.50;99.90;;;;;;4185996;28;20057;-76
2022/05/13 02:43:13;;;;;;;22.67;11.70;;;15.60;99.90;;;;;;4188142;28;20176;-75
2022/05/13 02:45:14;;;;;;;9.70;8.60;;;15.60;99.90;;;;;;4189370;28;20057;-76
2022/05/13 02:47:16;;;;;;;11.88;10.25;;;15.60;99.90;;;;;;4188635;28;20068;-75
2022/05/13 02:49:18;;;;;;;14.20;11.15;;;15.50;99.90;;;;;;4185995;28;20058;-75
2022/05/13 02:51:21;;;;;;;15.27;11.45;;;15.50;99.90;;;;;;4188048;28;20095;-75
2022/05/13 02:53:24;;;;;;;17.80;11.57;;;15.50;99.90;;;;;;4187286;28;20053;-75
2022/05/13 02:55:26;;;;;;;13.63;11.13;;;15.50;99.90;;;;;;4186800;28;20060;-75
2022/05/13 02:57:28;;;;;;;15.65;12.25;;;15.50;99.90;;;;;;4182088;28;20056;-75
2022/05/13 02:59:30;;;;;;;18.58;12.23;;;15.60;99.90;;;;;;4186380;28;20175;-74
2022/05/13 03:01:32;;;;;;;18.40;13.25;;;15.60;99.90;;;;;;4185232;28;20057;-75
2022/05/13 03:03:36;;;;;;;17.60;12.48;;;15.60;99.90;;;;;;4185039;28;20883;-75
2022/05/13 03:05:38;;;;;;;17.58;12.98;;;15.60;99.90;;;;;;4185052;28;20859;-75
2022/05/13 03:07:40;;;;;;;17.33;11.38;;;15.60;99.90;;;;;;4184380;28;20059;-74
2022/05/13 03:09:44;;;;;;;13.68;11.25;;;15.60;99.90;;;;;;4183817;28;20862;-75
2022/05/13 03:11:46;;;;;;;12.40;10.02;;;15.60;99.90;;;;;;4175794;28;20057;-75
2022/05/13 03:13:49;;;;;;;14.10;9.57;;;15.60;99.90;;;;;;4181158;28;20068;-74
2022/05/13 03:15:51;;;;;;;15.52;10.25;;;15.50;99.90;;;;;;4183479;28;20152;-75
2022/05/13 03:17:52;;;;;;;11.90;10.35;;;15.50;99.90;;;;;;4182990;28;20099;-75
2022/05/13 03:19:55;;;;;;;17.20;11.30;;;15.50;99.90;;;;;;4185352;28;20067;-75
2022/05/13 03:21:57;;;;;;;18.35;12.07;;;15.50;99.90;;;;;;4186807;28;20148;-75
2022/05/13 03:23:59;;;;;;;17.23;12.68;;;15.40;99.90;;;;;;4195198;28;20057;-76
2022/05/13 03:26:01;;;;;;;18.40;12.88;;;15.40;99.90;;;;;;4193389;28;20599;-75
2022/05/13 03:28:02;;;;;;;22.17;13.55;;;15.50;99.90;;;;;;4196483;28;20057;-74
2022/05/13 03:30:06;;;;;;;20.65;13.00;;;15.50;99.90;;;;;;4172673;28;20066;-74
2022/05/13 03:32:08;;;;;;;29.80;14.25;;;15.50;99.90;;;;;;4193492;28;20063;-74
2022/05/13 03:34:11;;;;;;;18.48;12.35;;;15.50;99.90;;;;;;4190526;28;20050;-74
2022/05/13 03:36:14;;;;;;;14.30;10.10;;;15.50;99.90;;;;;;4192192;28;20096;-75
2022/05/13 03:38:16;;;;;;;15.63;10.95;;;15.50;99.90;;;;;;4181471;28;20108;-73
2022/05/13 03:40:18;;;;;;;14.95;10.90;;;15.40;99.90;;;;;;4166568;28;20058;-74
2022/05/13 03:42:22;;;;;;;24.40;11.20;;;15.40;99.90;;;;;;4184341;28;20096;-75
2022/05/13 03:44:24;;;;;;;14.88;11.57;;;15.40;99.90;;;;;;4185671;28;20180;-76
2022/05/13 03:46:26;;;;;;;18.13;11.20;;;15.50;99.90;;;;;;4186428;28;20163;-75
2022/05/13 03:48:28;;;;;;;18.15;12.70;;;15.50;99.90;;;;;;4186780;28;20064;-74
2022/05/13 03:50:30;;;;;;;22.42;11.35;;;15.50;99.90;;;;;;4185490;28;20677;-73
2022/05/13 03:52:32;;;;;;;16.55;11.55;;;15.50;99.90;;;;;;4182002;28;20057;-73
2022/05/13 03:54:33;;;;;;;19.73;12.60;;;15.50;99.90;;;;;;4180634;28;20790;-74
2022/05/13 03:56:35;;;;;;;15.95;12.15;;;15.50;99.90;;;;;;4185276;28;20057;-73
2022/05/13 03:58:37;;;;;;;20.08;13.27;;;15.50;99.90;;;;;;4185078;28;20057;-74
2022/05/13 04:00:38;;;;;;;14.63;11.63;;;15.50;99.90;;;;;;4185071;28;20176;-73
2022/05/13 04:02:41;;;;;;;24.02;12.52;;;15.50;99.90;;;;;;4167993;28;20064;-75
2022/05/13 04:09:24;;;;;;;17.38;12.40;;;15.50;99.90;;;;;;4183443;28;20066;-76
2022/05/13 04:11:36;;;;;;;23.95;12.52;;;15.50;99.90;;;;;;4185894;28;20062;-75
2022/05/13 04:16:04;;;;;;;23.00;12.40;;;15.50;99.90;;;;;;4183881;28;20100;-75
2022/05/13 04:18:06;;;;;;;13.90;11.50;;;15.40;99.90;;;;;;4184540;28;20964;-74
2022/05/13 04:20:08;;;;;;;15.43;11.73;;;15.50;99.90;;;;;;4184696;28;20072;-74
2022/05/13 04:22:13;;;;;;;16.42;11.45;;;15.50;99.90;;;;;;4180056;28;20053;-74
2022/05/13 04:24:17;;;;;;;16.88;11.23;;;15.40;99.90;;;;;;4181207;28;20669;-75
2022/05/13 04:26:19;;;;;;;20.08;11.88;;;15.40;99.90;;;;;;4179787;28;20057;-75
2022/05/13 04:28:21;;;;;;;15.80;11.35;;;15.40;99.90;;;;;;4182282;28;20180;-75
2022/05/13 04:30:23;;;;;;;14.68;11.25;;;15.40;99.90;;;;;;4181800;28;20058;-74
2022/05/13 04:32:24;;;;;;;15.43;11.07;;;15.30;99.90;;;;;;4180380;28;20061;-75
2022/05/13 04:34:28;;;;;;;13.38;11.30;;;15.30;99.90;;;;;;4179992;28;20058;-75
2022/05/13 04:36:30;;;;;;;12.48;10.18;;;15.40;99.90;;;;;;4179420;28;20057;-74
2022/05/13 04:38:32;;;;;;;17.85;10.75;;;15.30;99.90;;;;;;4196085;28;20155;-74
2022/05/13 04:40:35;;;;;;;12.65;10.15;;;15.40;99.90;;;;;;4194408;28;20769;-74
2022/05/13 04:42:51;;;;;;;10.48;9.45;;;15.40;99.90;;;;;;4180800;28;20161;-75
2022/05/13 04:44:53;;;;;;;17.85;9.90;;;15.40;99.90;;;;;;4182193;28;20736;-75
2022/05/13 04:46:55;;;;;;;16.38;11.23;;;15.40;99.90;;;;;;4186855;28;20057;-74
2022/05/13 04:48:57;;;;;;;11.43;10.23;;;15.40;99.90;;;;;;4186441;28;20053;-75
2022/05/13 04:51:00;;;;;;;11.25;9.32;;;15.40;99.90;;;;;;4187200;28;20063;-75
2022/05/13 04:53:04;;;;;;;10.07;9.07;;;15.40;99.90;;;;;;4181582;28;20175;-75
2022/05/13 04:55:06;;;;;;;13.25;10.70;;;15.40;99.90;;;;;;4184457;28;21086;-75
2022/05/13 04:57:07;;;;;;;10.98;9.95;;;15.40;99.90;;;;;;4182136;28;20911;-75
2022/05/13 04:59:09;;;;;;;11.70;10.50;;;15.30;99.90;;;;;;4182849;28;20136;-75
2022/05/13 05:01:11;;;;;;;13.15;9.80;;;15.40;99.90;;;;;;4182840;28;20062;-75
2022/05/13 05:03:14;;;;;;;13.70;10.48;;;15.30;99.90;;;;;;4183090;28;20075;-75
2022/05/13 05:05:16;;;;;;;13.85;10.63;;;15.30;99.90;;;;;;4187962;28;20056;-74
2022/05/13 05:07:17;;;;;;;13.70;10.68;;;15.30;99.90;;;;;;4190266;28;20157;-74
2022/05/13 05:09:19;;;;;;;12.10;10.30;;;15.30;99.90;;;;;;4187305;28;20099;-74
2022/05/13 05:11:21;;;;;;;15.98;10.70;;;15.30;99.90;;;;;;4187827;28;20057;-75
2022/05/13 05:13:22;;;;;;;12.32;10.00;;;15.20;99.90;;;;;;4186245;28;20066;-75
2022/05/13 05:15:25;;;;;;;13.70;10.65;;;15.20;99.90;;;;;;4187468;28;20063;-75
2022/05/13 05:17:26;;;;;;;9.88;8.50;;;15.10;99.90;;;;;;4165823;28;20057;-76
2022/05/13 05:19:28;;;;;;;10.75;9.65;;;15.10;99.90;;;;;;4187052;28;20061;-76
2022/05/13 05:21:30;;;;;;;33.97;10.55;;;15.20;99.90;;;;;;4189976;28;20064;-77
2022/05/13 05:23:34;;;;;;;10.30;9.07;;;15.20;99.90;;;;;;4170257;28;20848;-73
2022/05/13 05:25:36;;;;;;;9.70;8.70;;;15.20;99.90;;;;;;4189765;28;20057;-77
2022/05/13 05:27:38;;;;;;;12.38;9.00;;;15.10;99.90;;;;;;4190101;28;20057;-78
2022/05/13 05:29:39;;;;;;;14.45;10.40;;;15.10;99.90;;;;;;4188613;28;20061;-78
2022/05/13 05:31:41;;;;;;;17.75;9.35;;;15.20;99.90;;;;;;4183535;28;20049;-78
2022/05/13 05:33:43;;;;;;;20.67;10.02;;;15.20;99.90;;;;;;4188821;28;20061;-78
2022/05/13 05:35:45;;;;;;;16.80;9.63;;;15.20;99.90;;;;;;4187732;28;20064;-78
2022/05/13 05:37:47;;;;;;;12.25;8.75;;;15.30;99.90;;;;;;4173116;28;20058;-78
2022/05/13 05:39:49;;;;;;;9.95;8.35;;;15.30;99.90;;;;;;4174729;28;20041;-78
2022/05/13 05:41:51;;;;;;;18.48;8.80;;;15.20;99.90;;;;;;4187292;28;20041;-78
2022/05/13 05:43:52;;;;;;;11.85;9.90;;;15.30;99.90;;;;;;4175705;28;20062;-77
2022/05/13 05:45:56;;;;;;;14.48;9.65;;;15.40;99.90;;;;;;4197020;28;20083;-78
2022/05/13 05:47:59;;;;;;;10.82;9.30;;;15.40;99.90;;;;;;4167690;28;20102;-78
2022/05/13 05:50:02;;;;;;;7.05;6.45;;;15.40;99.90;;;;;;4166486;28;20264;-78
2022/05/13 05:52:04;;;;;;;10.38;7.38;;;15.40;99.90;;;;;;4165227;28;20153;-78
2022/05/13 05:58:47;;;;;;;14.18;9.40;;;15.30;99.90;;;;;;4187140;28;20100;-78
2022/05/13 06:00:50;;;;;;;16.63;10.73;;;15.30;99.90;;;;;;4190259;28;20097;-78
2022/05/13 06:02:53;;;;;;;12.68;9.27;;;15.30;99.90;;;;;;4189373;28;20155;-78
2022/05/13 06:04:55;;;;;;;11.60;8.07;;;15.30;99.90;;;;;;4190518;28;20049;-78
2022/05/13 06:06:57;;;;;;;9.95;6.95;;;15.20;99.90;;;;;;4169111;28;20810;-78
2022/05/13 06:08:59;;;;;;;14.05;8.07;;;15.10;99.90;;;;;;4170891;28;20907;-77
2022/05/13 06:11:01;;;;;;;12.40;8.38;;;15.20;99.90;;;;;;4186603;28;20172;-78
2022/05/13 06:13:05;;;;;;;14.30;8.30;;;15.20;99.90;;;;;;4188213;28;20053;-78
2022/05/13 06:15:07;;;;;;;10.70;8.50;;;15.30;99.90;;;;;;4190646;28;20891;-78
2022/05/13 06:17:10;;;;;;;11.48;8.40;;;15.20;99.90;;;;;;4191558;28;20046;-77
2022/05/13 06:19:11;;;;;;;20.60;8.70;;;15.30;99.90;;;;;;4181899;28;20125;-77
2022/05/13 06:21:15;;;;;;;9.80;8.82;;;15.30;99.90;;;;;;4193502;28;20048;-78
2022/05/13 06:23:17;;;;;;;12.48;8.02;;;15.30;99.90;;;;;;4189314;28;20163;-78
2022/05/13 06:25:20;;;;;;;10.15;7.38;;;15.30;99.90;;;;;;4175061;28;20104;-78
2022/05/13 06:27:21;;;;;;;12.23;8.27;;;15.30;99.90;;;;;;4172574;28;20134;-77
2022/05/13 06:29:25;;;;;;;13.77;9.70;;;15.30;99.90;;;;;;4192644;28;20209;-78
2022/05/13 06:31:27;;;;;;;13.38;10.32;;;15.30;99.90;;;;;;4186966;28;20081;-77
2022/05/13 06:33:28;;;;;;;15.85;9.88;;;15.40;99.90;;;;;;4189019;28;20876;-77
2022/05/13 06:35:33;;;;;;;13.40;9.40;;;15.50;99.90;;;;;;4185990;28;20049;-78
2022/05/13 06:37:35;;;;;;;16.50;9.15;;;15.50;99.90;;;;;;4183096;28;20647;-78
2022/05/13 06:39:37;;;;;;;12.45;8.23;;;15.60;99.90;;;;;;4166598;28;20088;-77
2022/05/13 06:41:40;;;;;;;12.80;8.30;;;15.60;99.90;;;;;;4169182;28;20068;-78
2022/05/13 06:43:42;;;;;;;16.63;8.32;;;15.60;99.90;;;;;;4187647;28;20065;-78
2022/05/13 06:45:44;;;;;;;13.15;7.93;;;15.60;99.90;;;;;;4190304;28;20053;-77
2022/05/13 06:47:46;;;;;;;13.90;7.32;;;15.60;99.90;;;;;;4182189;28;20062;-76
2022/05/13 06:49:48;;;;;;;12.65;7.68;;;15.50;99.90;;;;;;4176161;28;20046;-77
2022/05/13 06:51:49;;;;;;;6.85;5.97;;;15.50;99.90;;;;;;4179073;28;20798;-75
2022/05/13 06:53:51;;;;;;;13.60;6.90;;;15.60;99.90;;;;;;4181937;28;20105;-76
2022/05/13 06:55:53;;;;;;;9.55;5.20;;;15.60;99.90;;;;;;4185985;28;20084;-76
2022/05/13 06:57:54;;;;;;;7.35;5.50;;;15.50;99.90;;;;;;4166498;28;20061;-75
2022/05/13 06:59:56;;;;;;;8.40;5.28;;;15.40;99.90;;;;;;4187545;28;20058;-75
2022/05/13 07:02:04;;;;;;;8.00;5.57;;;15.40;99.90;;;;;;4180104;28;20092;-76
2022/05/13 07:04:32;;;;;;;8.57;5.40;;;15.50;99.90;;;;;;4177951;28;20062;-76
2022/05/13 07:13:30;;;;;;;12.03;5.50;;;15.30;99.90;;;;;;4175409;28;20142;-78
2022/05/13 07:15:37;;;;;;;6.95;5.63;;;15.20;99.90;;;;;;4193770;28;20361;-78
2022/05/13 07:18:04;;;;;;;7.40;5.28;;;15.20;99.90;;;;;;4149329;28;20067;-77
2022/05/13 07:20:11;;;;;;;11.25;5.20;;;15.10;99.90;;;;;;4154093;28;20085;-77
2022/05/13 07:33:05;;;;;;;8.68;5.95;;;15.00;99.90;;;;;;4115434;28;20069;-77
2022/05/13 07:36:54;;;;;;;7.65;6.10;;;15.00;99.90;;;;;;4058110;28;20052;-77
2022/05/13 07:43:35;;;;;;;9.23;5.93;;;15.20;99.90;;;;;;4013806;29;20158;-77
2022/05/13 07:45:37;;;;;;;13.15;6.40;;;15.10;99.90;;;;;;3997132;29;20661;-77
2022/05/13 07:48:34;;;;;;;5.95;5.35;;;15.10;99.90;;;;;;4015280;29;20889;-77
2022/05/13 07:51:07;;;;;;;7.78;5.07;;;15.10;99.90;;;;;;4022199;29;20176;-77
2022/05/13 08:01:21;;;;;;;11.07;5.15;;;15.30;99.90;;;;;;4085646;28;20056;-78
2022/05/13 08:03:59;;;;;;;7.90;4.25;;;15.40;99.90;;;;;;4082492;28;20106;-77
2022/05/13 08:06:15;;;;;;;8.35;5.20;;;15.40;99.90;;;;;;4099536;28;20119;-76
2022/05/13 08:08:20;;;;;;;8.70;4.22;;;15.60;99.90;;;;;;4130637;28;20127;-77
2022/05/13 08:10:21;;;;;;;11.90;5.07;;;15.70;99.90;;;;;;4124396;28;20055;-77
2022/05/13 08:12:23;;;;;;;6.03;4.45;;;15.90;99.90;;;;;;4138553;28;20070;-77
2022/05/13 08:14:25;;;;;;;9.50;4.28;;;15.90;99.90;;;;;;4139440;28;20109;-77
2022/05/13 08:17:12;;;;;;;6.82;4.03;;;16.00;99.90;;;;;;4136590;28;20085;-79
2022/05/13 08:20:31;;;;;;;6.88;4.10;;;15.90;99.90;;;;;;4133621;28;20046;-77
2022/05/13 08:23:37;;;;;;;7.72;3.95;;;15.80;99.90;;;;;;4136400;28;20195;-78
2022/05/13 08:26:41;;;;;;;8.40;3.60;;;15.90;99.90;;;;;;4174220;28;20060;-78
2022/05/13 08:29:32;;;;;;;4.63;3.08;;;15.80;99.90;;;;;;4191881;28;20149;-78
2022/05/13 08:32:31;;;;;;;8.75;4.15;;;15.70;99.90;;;;;;4177077;28;20066;-79
2022/05/13 08:39:11;;;;;;;6.72;3.28;;;15.80;99.90;;;;;;4083336;28;20059;-78
2022/05/13 08:45:57;;;;;;;9.77;3.85;;;15.80;99.90;;;;;;4083125;28;20100;-78
2022/05/13 08:55:30;;;;;;;9.00;2.85;;;15.40;99.90;;;;;;4080987;28;20064;-79
2022/05/13 08:58:17;;;;;;;8.73;2.65;;;15.40;99.90;;;;;;4080108;28;20060;-79
2022/05/13 09:05:11;;;;;;;12.77;3.08;;;15.40;99.90;;;;;;4072425;29;20071;-80
2022/05/13 09:08:09;;;;;;;4.60;2.85;;;15.50;99.90;;;;;;4067809;29;22018;-79
2022/05/13 09:11:27;;;;;;;6.05;2.53;;;15.40;99.90;;;;;;4055735;29;20056;-81
2022/05/13 09:14:39;;;;;;;5.22;2.78;;;15.40;99.90;;;;;;4086982;29;20175;-79
2022/05/13 09:20:22;;;;;;;5.40;1.98;;;15.40;99.90;;;;;;4075405;29;20064;-79
2022/05/13 09:23:02;;;;;;;9.27;2.92;;;15.20;99.90;;;;;;4070740;29;20829;-79
2022/05/13 09:29:14;;;;;;;7.32;2.78;;;15.30;99.90;;;;;;4102506;28;20205;-78
2022/05/13 09:32:41;;;;;;;7.25;2.83;;;15.40;99.90;;;;;;4025940;29;20057;-78
2022/05/13 09:35:00;;;;;;;5.10;2.42;;;15.10;99.90;;;;;;4035988;29;20797;-78
2022/05/13 09:37:27;;;;;;;7.50;2.55;;;15.10;99.90;;;;;;4020171;29;20110;-77
2022/05/13 09:39:35;;;;;;;5.28;2.25;;;15.00;99.90;;;;;;4059059;28;20151;-78
2022/05/13 09:41:37;;;;;;;6.55;2.10;;;15.10;99.90;;;;;;4096726;28;20068;-78
2022/05/13 09:44:03;;;;;;;3.88;2.38;;;15.20;99.90;;;;;;4107941;28;20056;-78
2022/05/13 09:46:11;;;;;;;4.35;1.75;;;15.20;99.90;;;;;;4113796;28;20055;-78
2022/05/13 09:48:20;;;;;;;4.93;2.10;;;15.30;99.90;;;;;;4112182;28;20686;-78
2022/05/13 09:50:31;;;;;;;7.35;2.00;;;15.40;99.90;;;;;;4112982;28;20055;-78
2022/05/13 09:52:34;;;;;;;;;;;15.30;99.90;;;;;;4110867;28;20174;-78
2022/05/13 09:54:42;;;;;;;4.80;2.30;;;15.30;99.90;;;;;;4111388;28;20778;-78
2022/05/13 09:56:46;;;;;;;5.45;2.63;;;15.30;99.90;;;;;;4117060;28;20070;-78
2022/05/13 09:58:53;;;;;;;7.93;3.10;;;15.40;99.90;;;;;;4126231;28;20977;-78
2022/05/13 10:01:03;;;;;;;7.68;2.28;;;15.50;99.90;;;;;;4146001;28;20069;-77
2022/05/13 10:03:29;;;;;;;12.77;2.65;;;15.50;99.90;;;;;;4140277;28;20062;-78
2022/05/13 10:05:33;;;;;;;12.48;2.22;;;15.60;99.90;;;;;;4175064;28;20060;-77
2022/05/13 10:07:41;;;;;;;5.55;2.00;;;15.60;99.90;;;;;;4195828;28;20536;-78
2022/05/13 10:14:40;;;;;;;4.60;2.30;;;15.80;99.90;;;;;;4192609;28;20104;-77
2022/05/13 10:16:46;;;;;;;2.47;1.52;;;15.80;99.90;;;;;;4190118;28;20815;-77
2022/05/13 10:18:55;;;;;;;9.15;2.22;;;15.80;99.90;;;;;;4187963;28;20057;-77
2022/05/13 10:21:06;;;;;;;6.85;2.10;;;15.70;99.90;;;;;;4189502;28;20054;-76
2022/05/13 10:23:18;;;;;;;5.97;1.92;;;15.80;99.90;;;;;;4168051;28;20124;-76
2022/05/13 10:25:53;;;;;;;7.60;2.30;;;15.90;99.90;;;;;;4178154;28;20768;-76
2022/05/13 10:28:01;;;;;;;5.28;1.95;;;16.00;99.90;;;;;;4195040;28;20033;-77
2022/05/13 10:30:15;;;;;;;5.82;1.60;;;16.10;99.90;;;;;;4198159;28;20097;-78
2022/05/13 10:32:39;;;;;;;4.70;1.83;;;16.20;99.90;;;;;;4188129;28;20089;-78
2022/05/13 10:35:17;;;;;;;5.95;2.13;;;16.30;99.90;;;;;;4183562;28;20062;-79
2022/05/13 10:37:30;;;;;;;7.03;1.85;;;16.20;99.90;;;;;;4188957;28;20049;-79
2022/05/13 10:39:36;;;;;;;5.30;2.13;;;16.40;99.90;;;;;;4175415;28;21588;-79
2022/05/13 10:41:48;;;;;;;3.33;1.45;;;16.60;99.90;;;;;;4155787;28;20078;-78
2022/05/13 10:43:56;;;;;;;8.35;1.63;;;16.60;99.90;;;;;;4170335;28;20058;-79
2022/05/13 10:46:18;;;;;;;4.47;1.80;;;16.60;99.90;;;;;;4183767;28;20130;-79
2022/05/13 10:48:29;;;;;;;2.97;1.80;;;16.60;99.90;;;;;;4167645;28;20065;-78
2022/05/13 10:51:06;;;;;;;6.75;2.78;;;16.50;99.90;;;;;;4188720;28;20061;-79
2022/05/13 10:53:15;;;;;;;3.20;1.90;;;16.60;99.90;;;;;;4174367;28;20099;-79
2022/05/13 10:55:51;;;;;;;4.00;1.92;;;16.50;99.90;;;;;;4182557;28;20041;-78
2022/05/13 10:58:09;;;;;;;2.78;1.52;;;16.70;99.90;;;;;;4177979;28;20053;-79
2022/05/13 11:00:16;;;;;;;3.83;1.90;;;16.70;99.90;;;;;;4216387;28;20041;-79
2022/05/13 11:02:23;;;;;;;4.50;2.42;;;16.80;99.90;;;;;;4185896;28;20057;-79
2022/05/13 11:05:07;;;;;;;2.15;1.58;;;16.90;99.90;;;;;;4205021;28;20052;-79
2022/05/13 11:07:21;;;;;;;3.67;1.88;;;17.10;99.90;;;;;;4174212;28;20088;-79
2022/05/13 11:09:36;;;;;;;5.97;2.45;;;17.30;99.90;;;;;;4205533;28;20075;-79
2022/05/13 11:11:44;;;;;;;5.03;2.15;;;17.30;99.90;;;;;;4201861;28;20056;-79
2022/05/13 11:13:52;;;;;;;2.20;1.52;;;17.30;99.20;;;;;;4192756;28;20056;-79
2022/05/13 11:16:01;;;;;;;6.13;1.92;;;17.50;99.90;;;;;;4193561;28;20046;-79
2022/05/13 11:18:43;;;;;;;3.60;1.80;;;17.60;99.40;;;;;;4168446;28;20085;-80
2022/05/13 11:20:57;;;;;;;7.30;2.25;;;17.80;99.90;;;;;;4177527;28;20149;-79
2022/05/13 11:23:20;;;;;;;3.15;1.60;;;17.90;98.10;;;;;;4195196;28;20147;-79
2022/05/13 11:25:57;;;;;;;4.80;1.65;;;18.10;99.80;;;;;;4170484;28;20891;-79
2022/05/13 11:28:35;;;;;;;3.53;2.00;;;18.30;99.90;;;;;;4193527;28;20087;-79
2022/05/13 11:30:42;;;;;;;4.13;1.95;;;18.50;98.30;;;;;;4190531;28;20058;-79
2022/05/13 11:33:25;;;;;;;2.97;1.90;;;18.40;93.40;;;;;;4193899;28;20045;-79
2022/05/13 11:36:11;;;;;;;3.97;2.42;;;18.30;94.40;;;;;;4199078;28;20025;-78
2022/05/13 11:38:24;;;;;;;5.80;1.95;;;18.20;93.60;;;;;;4175299;28;20053;-78
2022/05/13 11:40:43;;;;;;;2.88;1.98;;;18.30;93.40;;;;;;4189755;28;20061;-79
2022/05/13 11:43:42;;;;;;;7.05;3.05;;;18.60;92.30;;;;;;4188985;28;20054;-80
2022/05/13 11:46:17;;;;;;;4.13;2.58;;;18.80;92.60;;;;;;4188901;28;20050;-79
2022/05/13 11:48:40;;;;;;;4.57;2.00;;;18.70;91.20;;;;;;4192115;28;20061;-79
2022/05/13 11:50:42;;;;;;;4.82;2.55;;;19.00;93.60;;;;;;4179752;28;20066;-79
2022/05/13 11:52:47;;;;;;;4.85;1.92;;;19.20;92.80;;;;;;4192736;28;20045;-80
2022/05/13 11:55:12;;;;;;;5.03;1.90;;;19.10;91.20;;;;;;4163041;28;20050;-80
2022/05/13 11:57:24;;;;;;;5.97;2.22;;;19.30;92.80;;;;;;4191203;28;20061;-79
2022/05/13 11:59:37;;;;;;;3.78;2.00;;;19.30;91.30;;;;;;4181675;28;20093;-79
2022/05/13 12:01:44;;;;;;;3.95;1.80;;;19.20;90.80;;;;;;4184740;28;20068;-79
2022/05/13 12:04:18;;;;;;;3.95;2.25;;;19.10;90.60;;;;;;4185116;28;20057;-78
2022/05/13 12:06:20;;;;;;;6.18;2.67;;;19.00;90.00;;;;;;4181671;28;20695;-79
2022/05/13 12:08:45;;;;;;;2.85;1.73;;;18.90;91.40;;;;;;4182136;28;20075;-80
2022/05/13 12:10:50;;;;;;;2.33;1.92;;;19.00;90.00;;;;;;4160328;28;20050;-78
2022/05/13 12:13:05;;;;;;;4.35;2.00;;;19.10;90.60;;;;;;4162270;28;20069;-79
2022/05/13 12:15:27;;;;;;;2.72;2.00;;;19.30;90.60;;;;;;4169765;28;20258;-79
2022/05/13 12:17:49;;;;;;;4.93;2.10;;;19.40;90.20;;;;;;4166800;28;20928;-79
2022/05/13 12:20:04;;;;;;;3.17;1.75;;;19.30;89.40;;;;;;4184948;28;20209;-79
2022/05/13 12:22:31;;;;;;;4.13;1.80;;;19.40;90.20;;;;;;4187303;28;20064;-79
2022/05/13 12:25:07;;;;;;;2.85;1.92;;;19.70;86.00;;;;;;4186095;28;21162;-79
2022/05/13 12:27:12;;;;;;;3.33;2.33;;;20.00;86.50;;;;;;4168127;28;20064;-78